Latest Coastal Weather Observations for Cape Nelson

IDV60701

Issued at 4:31 am EST Wednesday 29 June 2016 (issued every 10 minutes, with the page automatically refreshed every 10 minutes)

About coastal observations | Map of coastal stations | Coastal observations for VIC | Marine services | Other Formats
Station Details ID: 090184 Name: CAPE NELSON LIGHTHOUSE Lat: -38.43 Lon: 141.54 Height: 45.4 m
Data from the previous 72 hours. | See also: Recent months at Cape Nelson
Date/Time
EST
Temp
°C
Wind Pressure Rain since
9am
mm
Weather Cloud Vis
km
Sea
Height
m
Swell
Dir  Spd
kts
Gust
kts
hPa Trend Height
m
Period
s
Dir
29/04:30am 9.7 N 11 15 1023.2 - 2.6 - - - - - - -
29/04:00am 9.9 NNW 12 16 1023.3 - 2.6 - - - - - - -
29/03:30am 10.1 NNW 12 17 1023.5 - 2.6 - - - - - - -
29/03:00am 10.5 NNW 12 17 1023.5 - 2.6 - - - - - - -
29/02:30am 10.2 NNW 12 18 1023.4 - 2.6 - - - - - - -
29/02:00am 10.4 NNW 9 11 1023.7 - 2.6 - - - - - - -
29/01:30am 10.5 NNW 11 17 1023.9 - 2.6 - - - - - - -
29/01:00am 9.9 N 9 12 1023.6 - 2.6 - - - - - - -
29/12:30am 10.1 NNW 9 13 1023.9 - 2.6 - - - - - - -
29/12:00am 10.4 NNW 10 12 1024.0 - 2.6 - - - - - - -
 
Date/Time
EST
Temp
°C
Wind Pressure Rain since
9am
mm
Weather Cloud Vis
km
Sea
Height
m
Swell
Dir  Spd
kts
Gust
kts
hPa Trend Height
m
Period
s
Dir
28/11:30pm 10.5 N 9 13 1024.1 - 2.6 - - - - - - -
28/11:00pm 10.4 N 9 13 1024.0 - 2.6 - - - - - - -
28/10:30pm 10.7 N 7 10 1023.9 - 2.6 - - - - - - -
28/10:00pm 11.3 NNW 10 15 1024.0 - 2.6 - - - - - - -
28/09:30pm 11.4 NNW 10 13 1024.1 - 2.6 - - - - - - -
28/09:00pm 11.5 NNW 10 15 1024.1 - 2.4 - - - - - - -
28/08:30pm 11.3 NNW 10 16 1024.0 - 2.4 - - - - - - -
28/08:00pm 11.7 NW 12 17 1023.9 - 2.4 - - - - - - -
28/07:30pm 11.8 NW 13 19 1023.6 - 1.0 - - - - - - -
28/07:00pm 12.3 NW 13 21 1023.5 - 1.0 - - - - - - -
28/06:30pm 12.7 NW 13 18 1023.0 - 0.8 - - - - - - -
28/06:00pm 12.5 NW 13 17 1022.8 - 0.8 - - - - - - -
28/05:30pm 12.6 NW 14 19 1022.6 - 0.8 - - - - - - -
28/05:00pm 12.7 NW 15 19 1022.5 - 0.8 - - - - - - -
28/04:30pm 13.0 NW 16 21 1022.2 - 0.8 - - - - - - -
28/04:00pm 13.0 WNW 14 21 1022.1 - 0.8 - - - - - - -
28/03:30pm 13.9 NW 18 29 1022.1 - 0.2 - - - - - - -
28/03:29pm 14.0 NW 18 29 1022.1 - 0.0 - - - - - - -
28/03:00pm 14.7 NW 16 22 1021.7 - 0.0 - - - - - - -
28/02:30pm 15.1 NW 17 23 1021.7 - 0.0 - - - - - - -
28/02:00pm 15.5 NW 15 20 1021.8 - 0.0 - - - - - - -
28/01:30pm 14.6 NW 16 22 1022.0 - 0.0 - - - - - - -
28/01:00pm 16.0 NW 15 21 1022.2 - 0.0 - - - - - - -
28/12:30pm 15.6 NW 16 22 1022.2 - 0.0 - - - - - - -
28/12:00pm 14.7 NW 15 21 1022.5 - 0.0 - - - - - - -
28/11:30am 14.5 NW 15 21 1022.7 - 0.0 - - - - - - -
28/11:00am 13.7 NW 15 21 1022.7 - 0.0 - - - - - - -
28/10:30am 12.5 NW 13 20 1022.5 - 0.0 - - - - - - -
28/10:00am 12.2 NW 15 22 1022.4 - 0.0 - - - - - - -
28/09:30am 11.7 NW 16 20 1022.1 - 0.0 - - - - - - -
28/09:00am 11.1 NW 15 21 1021.9 - 1.0 - - - - - - -
28/08:30am 10.8 NW 13 17 1021.5 - 1.0 - - - - - - -
28/08:00am 10.4 NNW 12 17 1021.1 - 1.0 - - - - - - -
28/07:30am 10.2 NNW 11 16 1020.8 - 1.0 - - - - - - -
28/07:00am 10.3 NW 15 21 1020.5 - 1.0 - - - - - - -
28/06:30am 10.4 NW 15 21 1020.2 - 1.0 - - - - - - -
28/06:00am 10.2 NNW 12 18 1019.9 - 1.0 - - - - - - -
28/05:30am 10.3 NNW 12 17 1019.5 - 1.0 - - - - - - -
28/05:00am 10.4 NW 13 20 1019.6 - 1.0 - - - - - - -
28/04:30am 9.9 NNW 13 20 1019.4 - 1.0 - - - - - - -
28/04:00am 9.7 NNW 12 20 1019.4 - 1.0 - - - - - - -
28/03:30am 9.6 NNW 13 17 1019.6 - 1.0 - - - - - - -
28/03:00am 9.7 NNW 11 15 1019.6 - 0.8 Recent precip. - - - - - -
28/02:30am 9.9 NNW 11 16 1019.6 - 0.8 - - - - - - -
28/02:00am 10.0 NW 11 16 1019.6 - 0.6 - - - - - - -
28/01:30am 10.2 NNW 9 13 1019.5 - 0.4 - - - - - - -
28/01:00am 10.4 NNW 13 17 1019.5 - 0.4 - - - - - - -
28/12:30am 10.1 NNW 12 16 1019.6 - 0.4 - - - - - - -
28/12:00am 9.9 NNW 12 17 1019.5 - 0.4 - - - - - - -
 
Date/Time
EST
Temp
°C
Wind Pressure Rain since
9am
mm
Weather Cloud Vis
km
Sea
Height
m
Swell
Dir  Spd
kts
Gust
kts
hPa Trend Height
m
Period
s
Dir
27/11:30pm 9.7 NNW 12 17 1019.4 - 0.4 - - - - - - -
27/11:00pm 9.8 NNW 11 15 1019.5 - 0.4 - - - - - - -
27/10:30pm 10.2 NW 15 20 1019.4 - 0.4 - - - - - - -
27/10:00pm 10.1 NW 15 21 1019.5 - 0.4 - - - - - - -
27/09:30pm 10.2 NW 14 19 1019.4 - 0.4 - - - - - - -
27/09:00pm 10.0 NNW 11 16 1019.4 - 0.4 Rain - - - - - -
27/08:30pm 10.6 NNW 13 19 1019.1 - 0.0 - - - - - - -
27/08:00pm 10.3 NNW 11 15 1018.9 - 0.0 - - - - - - -
27/07:30pm 10.7 NW 11 17 1018.8 - 0.0 - - - - - - -
27/07:00pm 10.6 NNW 8 10 1018.6 - 0.0 - - - - - - -
27/06:30pm 11.9 NW 11 16 1018.2 - 0.0 - - - - - - -
27/06:00pm 12.2 WNW 13 17 1018.2 - 0.0 - - - - - - -
27/05:30pm 12.3 WNW 14 19 1017.9 - 0.0 - - - - - - -
27/05:00pm 12.6 WNW 15 19 1017.6 - 0.0 - - - - - - -
27/04:30pm 12.8 W 15 22 1017.6 - 0.0 - - - - - - -
27/04:00pm 13.0 W 14 22 1017.5 - 0.0 - - - - - - -
27/03:30pm 13.2 WNW 14 23 1017.3 - 0.0 - - - - - - -
27/03:00pm 13.5 W 12 18 1017.2 - 0.0 - - - - - - -
27/02:30pm 13.4 W 13 20 1017.0 - 0.0 - - - - - - -
27/02:00pm 13.2 W 11 17 1017.0 - 0.0 - - - - - - -
27/01:30pm 13.6 NW 9 13 1017.1 - 0.0 - - - - - - -
27/01:00pm 13.5 NW 11 17 1017.3 - 0.0 - - - - - - -
27/12:30pm 13.0 WNW 11 17 1017.5 - 0.0 - - - - - - -
27/12:00pm 12.3 WNW 10 14 1017.8 - 0.0 - - - - - - -
27/11:30am 12.8 NW 9 13 1017.9 - 0.0 - - - - - - -
27/11:00am 13.1 WNW 9 14 1017.8 - 0.0 - - - - - - -
27/10:30am 12.2 WNW 10 14 1017.7 - 0.0 - - - - - - -
27/10:00am 12.5 W 9 14 1017.4 - 0.0 - - - - - - -
27/09:30am 11.7 W 11 15 1017.1 - 0.0 - - - - - - -
27/09:00am 10.3 WNW 9 15 1016.9 - 9.8 - - - - - - -
27/08:30am 8.8 NW 5 8 1016.8 - 9.8 - - - - - - -
27/08:00am 8.7 NW 6 8 1016.5 - 9.8 - - - - - - -
27/07:30am 8.9 NNW 7 8 1016.0 - 9.8 - - - - - - -
27/07:00am 9.2 NW 9 12 1015.9 - 9.0 - - - - - - -
27/06:30am 9.0 NW 9 11 1015.6 - 8.6 - - - - - - -
27/06:00am 9.0 NNW 9 13 1015.0 - 8.4 Recent precip. - - - - - -
27/05:30am 9.1 NNW 9 15 1014.8 - 8.2 - - - - - - -
27/05:00am 8.9 NNW 7 11 1014.5 - 8.2 - - - - - - -
27/04:30am 8.7 NW 11 16 1014.3 - 8.0 - - - - - - -
27/04:00am 8.6 NNW 12 17 1014.3 - 6.2 - - - - - - -
27/03:30am 8.5 NW 15 20 1014.1 - 4.8 - - - - - - -
27/03:00am 8.2 NNW 12 18 1014.1 - 3.8 Rain - - - - - -
27/02:30am 8.1 NNW 13 18 1014.0 - 2.6 - - - - - - -
27/02:00am 8.4 NNW 13 18 1013.9 - 0.6 - - - - - - -
27/01:30am 9.0 NNW 14 18 1013.9 - 0.2 - - - - - - -
27/01:00am 9.1 NNW 13 17 1013.9 - 0.0 - - - - - - -
27/12:30am 9.1 NNW 14 20 1013.9 - 0.0 - - - - - - -
27/12:00am 9.4 NNW 14 20 1014.0 - 0.0 - - - - - - -
 
Date/Time
EST
Temp
°C
Wind Pressure Rain since
9am
mm
Weather Cloud Vis
km
Sea
Height
m
Swell
Dir  Spd
kts
Gust
kts
hPa Trend Height
m
Period
s
Dir
26/11:30pm 9.4 NNW 14 20 1013.9 - 0.0 - - - - - - -
26/11:00pm 9.3 NNW 16 22 1013.8 - 0.0 - - - - - - -
26/10:30pm 9.4 NNW 16 24 1013.7 - 0.0 - - - - - - -
26/10:00pm 9.5 NNW 14 21 1013.9 - 0.0 - - - - - - -
26/09:30pm 9.8 NNW 14 19 1013.9 - 0.0 - - - - - - -
26/09:00pm 9.7 NNW 15 23 1014.0 - 0.0 - - - - - - -
26/08:30pm 9.5 NNW 16 22 1014.0 - 0.0 - - - - - - -
26/08:00pm 9.8 NNW 16 23 1014.1 - 0.0 - - - - - - -
26/07:30pm 9.9 NNW 14 20 1014.1 - 0.0 - - - - - - -
26/07:00pm 9.8 NNW 12 17 1014.2 - 0.0 - - - - - - -
26/06:30pm 9.9 NNW 11 17 1014.1 - 0.0 - - - - - - -
26/06:00pm 10.1 NNW 12 16 1013.9 - 0.0 - - - - - - -
26/05:30pm 10.2 NNW 12 20 1013.9 - 0.0 - - - - - - -
26/05:00pm 10.4 NNW 12 17 1013.8 - 0.0 - - - - - - -
26/04:30pm 10.8 NNW 13 18 1013.7 - 0.0 - - - - - - -
26/04:00pm 11.0 NNW 14 21 1013.6 - 0.0 - - - - - - -
26/03:30pm 11.6 NNW 14 24 1013.7 - 0.0 - - - - - - -
26/03:00pm 12.0 NNW 17 24 1013.7 - 0.0 - - - - - - -
26/02:30pm 12.4 NNW 15 20 1014.0 - 0.0 - - - - - - -
26/02:11pm 12.4 NNW 15 26 1014.1 - 0.0 - - - - - - -
26/02:00pm 13.0 NNW 14 20 1014.3 - 0.0 - - - - - - -
26/01:30pm 12.8 NNW 15 21 1014.6 - 0.0 - - - - - - -
26/01:00pm 12.2 NNW 13 20 1015.1 - 0.0 - - - - - - -
26/12:30pm 12.5 NNW 13 19 1015.3 - 0.0 - - - - - - -
26/12:00pm 11.7 NNW 15 20 1015.6 - 0.0 - - - - - - -
26/11:30am 11.0 NNW 14 21 1016.0 - 0.0 - - - - - - -
26/11:00am 10.4 NNW 15 21 1016.5 - 0.0 - - - - - - -
26/10:30am 9.6 NNW 15 25 1016.7 - 0.0 - - - - - - -
26/10:22am 9.5 NNW 15 25 1016.6 - 0.0 - - - - - - -
26/10:00am 8.9 N 14 19 1016.8 - 0.0 - - - - - - -
26/09:30am 7.9 NNW 15 21 1016.9 - 0.0 - - - - - - -
26/09:00am 7.2 NNW 16 22 1017.2 - 0.0 - - - - - - -
26/08:30am 6.6 NNW 17 23 1017.3 - 0.0 - - - - - - -
26/08:00am 6.5 NNW 18 25 1017.5 - 0.0 - - - - - - -
26/07:30am 6.6 NNW 17 25 1017.7 - 0.0 - - - - - - -
26/07:00am 6.2 NNW 15 20 1017.8 - 0.0 - - - - - - -
26/06:30am 6.4 NNW 16 22 1017.8 - 0.0 - - - - - - -
26/06:00am 6.6 NNW 15 21 1017.7 - 0.0 - - - - - - -
26/05:30am 6.8 NNW 15 23 1017.7 - 0.0 - - - - - - -
26/05:00am 6.7 NNW 17 22 1017.8 - 0.0 - - - - - - -

Other Formats:

Comma delimited format used in spreadsheet applications
http://www.bom.gov.au/fwo/IDV60701/IDV60701.94826.axf

JavaScript Object Notation format (JSON) in row-major order
http://www.bom.gov.au/fwo/IDV60701/IDV60701.94826.json